Time;durP1;ratioP1;P1;durP2;ratioP2;P2;SDS_P1;SDS_P2;PMS_P1;PMS_P2;Temp;Humidity;BMP_temperature;BMP_pressure;BME280_temperature;BME280_humidity;BME280_pressure;Samples;Min_cycle;Max_cycle;Signal;HPM_P1;HPM_P2
2022/09/19 00:01:24;;;;;;;;;;;16.10;72.60;;;15.26;100.00;83217.78;4336302;32;20297;-82
2022/09/19 00:03:55;;;;;;;;;;;16.10;72.80;;;15.26;100.00;62537.16;4336856;32;20004;-82
2022/09/19 00:06:26;;;;;;;;;;;16.10;72.80;;;15.25;100.00;83217.09;4289566;33;19921;-81
2022/09/19 00:08:56;;;;;;;;;;;16.10;72.80;;;15.25;100.00;83217.09;4265850;33;19910;-82
2022/09/19 00:11:25;;;;;;;;;;;16.10;72.70;;;-151.14;100.00;62537.16;4289762;33;20316;-81
2022/09/19 00:13:56;;;;;;;;;;;16.10;72.70;;;15.24;100.00;62537.16;4290582;33;19947;-81
2022/09/19 00:16:27;;;;;;;;;;;16.10;72.80;;;15.23;100.00;62537.16;4289613;33;19984;-81
2022/09/19 00:18:58;;;;;;;;;;;16.10;72.70;;;-151.14;100.00;62537.16;4290741;33;20299;-82
2022/09/19 00:21:29;;;;;;;;;;;16.00;72.60;;;-151.14;100.00;62537.16;4265890;33;19902;-81
2022/09/19 00:26:45;;;;;;;;;;;16.10;72.70;;;15.23;100.00;83213.56;4290475;33;19902;-82
2022/09/19 00:29:15;;;;;;;;;;;16.00;72.60;;;-151.14;100.00;62537.16;4290608;33;19917;-81
2022/09/19 00:31:44;;;;;;;;;;;16.10;72.80;;;15.22;100.00;62537.16;4289477;33;20048;-82
2022/09/19 00:34:13;;;;;;;;;;;16.00;72.60;;;15.21;100.00;83211.41;4289719;33;19901;-82
2022/09/19 00:36:42;;;;;;;;;;;16.00;72.70;;;15.21;100.00;83211.41;4290458;33;19902;-82
2022/09/19 00:39:15;;;;;;;;;;;16.00;72.60;;;15.20;100.00;62537.16;4289495;33;19925;-82
2022/09/19 00:41:43;;;;;;;;;;;16.00;72.70;;;15.19;100.00;62537.16;4290560;33;19952;-81
2022/09/19 00:45:00;;;;;;;;;;;16.00;72.80;;;15.19;100.00;83208.56;4289564;33;19988;-82
2022/09/19 00:47:36;;;;;;;;;;;16.00;72.80;;;15.19;100.00;83208.56;4289367;33;20213;-82
2022/09/19 00:50:10;;;;;;;;;;;16.10;72.90;;;15.18;100.00;83207.88;4260804;33;20232;-82
2022/09/19 00:52:43;;;;;;;;;;;16.00;72.90;;;15.18;100.00;83207.88;4260661;33;19902;-82
2022/09/19 00:55:13;;;;;;;;;;;16.00;72.90;;;-151.14;100.00;62537.16;4261634;33;19902;-82
2022/09/19 00:57:51;;;;;;;;;;;16.00;72.90;;;15.17;100.00;62537.16;4261337;33;20133;-82
2022/09/19 01:00:20;;;;;;;;;;;16.00;72.80;;;15.17;100.00;62537.16;4260729;33;20022;-82
2022/09/19 01:02:51;;;;;;;;;;;16.00;72.90;;;15.17;100.00;83205.72;4260538;33;19910;-81
2022/09/19 01:05:25;;;;;;;;;;;16.00;72.80;;;15.17;100.00;83205.72;4284400;33;20228;-82
2022/09/19 01:08:07;;;;;;;;;;;16.00;72.80;;;15.16;100.00;83204.31;4261259;33;20002;-82
2022/09/19 01:10:49;;;;;;;;;;;16.00;72.90;;;-151.14;100.00;62537.16;4260483;33;19910;-81
2022/09/19 01:13:24;;;;;;;;;;;16.00;72.90;;;15.15;100.00;83202.91;4260614;33;19903;-82
2022/09/19 01:15:55;;;;;;;;;;;16.00;72.80;;;15.15;100.00;62537.16;4236482;33;20210;-82
2022/09/19 01:18:27;;;;;;;;;;;16.00;72.80;;;15.14;100.00;83202.19;4284090;33;20344;-82
2022/09/19 01:24:37;;;;;;;;;;;16.00;72.80;;;-151.14;100.00;62537.16;4236766;33;19954;-81
2022/09/19 01:27:40;;;;;;;;;;;16.00;72.80;;;15.12;100.00;62537.16;4260293;33;20009;-82
2022/09/19 01:30:11;;;;;;;;;;;16.00;72.90;;;-151.14;100.00;62537.16;4308434;33;19968;-82
2022/09/19 01:32:51;;;;;;;;;;;16.00;72.90;;;15.12;100.00;62537.16;4260185;33;19986;-82
2022/09/19 01:35:25;;;;;;;;;;;16.00;73.00;;;15.12;100.00;62537.16;4261252;33;20210;-81
2022/09/19 01:38:00;;;;;;;;;;;16.00;72.90;;;15.10;100.00;83196.53;4259851;33;19902;-82
2022/09/19 01:40:29;;;;;;;;;;;16.00;72.90;;;15.11;100.00;62537.16;4236553;33;19906;-82
2022/09/19 01:43:05;;;;;;;;;;;16.00;73.00;;;15.10;100.00;83195.78;4236498;33;20249;-82
2022/09/19 01:45:36;;;;;;;;;;;15.90;72.90;;;15.09;100.00;62537.16;4260149;33;19902;-81
2022/09/19 01:48:14;;;;;;;;;;;15.90;72.90;;;15.09;100.00;62537.16;4236205;33;20141;-81
2022/09/19 01:51:17;;;;;;;;;;;15.90;73.00;;;-151.14;100.00;62537.16;4236741;33;19902;-81
2022/09/19 01:54:02;;;;;;;;;;;15.90;72.90;;;-151.14;100.00;62537.16;4207030;33;19902;-81
2022/09/19 01:57:01;;;;;;;;;;;16.00;73.00;;;-151.14;100.00;62537.16;4260818;33;19902;-81
2022/09/19 01:59:47;;;;;;;;;;;15.90;72.90;;;-151.14;100.00;62537.16;4283536;33;19902;-82
2022/09/19 02:02:27;;;;;;;;;;;15.90;72.90;;;15.09;100.00;83194.38;4259928;33;19993;-81
2022/09/19 02:04:59;;;;;;;;;;;15.90;72.90;;;15.09;100.00;83195.09;4236136;33;19948;-82
2022/09/19 02:07:32;;;;;;;;;;;15.90;73.00;;;15.06;100.00;83190.84;4236149;33;19982;-82
2022/09/19 02:10:03;;;;;;;;;;;15.90;73.00;;;15.08;100.00;62537.16;4236115;33;20006;-81
2022/09/19 02:12:37;;;;;;;;;;;15.90;73.10;;;15.07;100.00;62537.16;4259867;33;20028;-81
2022/09/19 02:15:12;;;;;;;;;;;15.90;72.90;;;15.06;100.00;83190.09;4307958;33;19902;-82
2022/09/19 02:17:50;;;;;;;;;;;15.90;72.90;;;15.06;100.00;62537.16;4283367;33;19902;-82
2022/09/19 02:20:22;;;;;;;;;;;15.90;72.90;;;15.06;100.00;83190.09;4282782;33;19903;-81
2022/09/19 02:22:56;;;;;;;;;;;15.90;73.00;;;15.04;100.00;83188.69;4259750;33;19902;-82
2022/09/19 02:25:31;;;;;;;;;;;15.90;72.90;;;15.04;100.00;62537.16;4283321;33;19909;-82
2022/09/19 02:28:03;;;;;;;;;;;15.90;72.90;;;15.04;100.00;62537.16;4235439;33;19979;-81
2022/09/19 02:30:31;;;;;;;;;;;15.90;72.90;;;15.04;100.00;83188.00;4307838;33;19993;-82
2022/09/19 02:33:04;;;;;;;;;;;15.90;72.90;;;15.04;100.00;62537.16;4259529;33;20205;-82
2022/09/19 02:35:39;;;;;;;;;;;15.90;72.90;;;15.03;100.00;62537.16;4259867;33;19903;-81
2022/09/19 02:38:16;;;;;;;;;;;15.90;72.90;;;15.03;100.00;83187.28;4283108;33;19909;-82
2022/09/19 02:40:50;;;;;;;;;;;15.90;72.90;;;-151.14;100.00;62537.16;4236013;33;20222;-81
2022/09/19 02:43:27;;;;;;;;;;;15.90;72.90;;;15.02;100.00;62537.16;4283392;33;19910;-82
2022/09/19 02:45:56;;;;;;;;;;;15.90;72.90;;;-151.14;100.00;62537.16;4235871;33;19902;-81
2022/09/19 02:48:31;;;;;;;;;;;15.90;73.10;;;-151.14;100.00;62537.16;4235507;33;19902;-82
2022/09/19 02:51:04;;;;;;;;;;;15.90;73.10;;;15.02;100.00;83185.16;4235919;33;20276;-81
2022/09/19 02:53:36;;;;;;;;;;;15.90;72.90;;;-151.14;100.00;62537.16;4258959;33;19902;-82
2022/09/19 02:56:06;;;;;;;;;;;15.90;73.10;;;15.01;100.00;83183.72;4306666;33;19909;-82
2022/09/19 02:58:38;;;;;;;;;;;15.90;73.00;;;15.00;100.00;83183.03;4282697;33;19903;-82
2022/09/19 03:01:11;;;;;;;;;;;15.90;72.90;;;15.00;100.00;83182.31;4259237;33;19902;-81
2022/09/19 03:06:36;;;;;;;;;;;15.80;72.90;;;15.00;100.00;83183.03;4259300;33;19906;-81
2022/09/19 03:09:05;;;;;;;;;;;15.80;73.00;;;15.00;100.00;62537.16;4258878;33;19909;-81
2022/09/19 03:11:34;;;;;;;;;;;15.80;73.00;;;14.99;100.00;83180.88;4235648;33;20134;-81
2022/09/19 03:14:03;;;;;;;;;;;15.80;73.00;;;14.99;100.00;83180.88;4307506;33;19909;-82
2022/09/19 03:16:34;;;;;;;;;;;15.80;72.90;;;14.98;100.00;62537.16;4259219;33;19902;-81
2022/09/19 03:19:05;;;;;;;;;;;15.80;72.90;;;14.98;100.00;62537.16;4258939;33;20324;-83
2022/09/19 03:21:36;;;;;;;;;;;15.80;72.90;;;14.97;100.00;83178.75;4307334;33;20118;-82
2022/09/19 03:24:05;;;;;;;;;;;15.80;72.90;;;14.96;100.00;83177.34;4307056;33;19951;-81
2022/09/19 03:26:36;;;;;;;;;;;15.80;72.90;;;14.96;100.00;95758.16;4258977;33;19909;-82
2022/09/19 03:29:08;;;;;;;;;;;15.80;73.10;;;-151.14;100.00;62537.16;4258745;33;20218;-81
2022/09/19 03:31:58;;;;;;;;;;;15.80;73.00;;;14.98;100.00;83180.19;4259024;33;19909;-81
2022/09/19 03:34:28;;;;;;;;;;;15.80;72.90;;;14.95;100.00;83175.91;4259025;33;20238;-82
2022/09/19 03:36:57;;;;;;;;;;;15.80;72.90;;;14.95;100.00;83175.91;4258888;33;19998;-82
2022/09/19 03:39:29;;;;;;;;;;;15.80;73.00;;;14.94;100.00;83173.81;4285263;33;20231;-82
2022/09/19 03:41:59;;;;;;;;;;;15.80;72.90;;;14.94;100.00;83174.50;4285320;33;19902;-81
2022/09/19 03:44:30;;;;;;;;;;;15.80;72.90;;;-151.14;100.00;62537.16;4261406;33;20281;-82
2022/09/19 03:46:59;;;;;;;;;;;15.80;73.10;;;14.94;100.00;83173.81;4285372;33;19902;-82
2022/09/19 03:49:30;;;;;;;;;;;15.80;73.00;;;14.93;100.00;83173.06;4237510;33;19902;-82
2022/09/19 03:51:59;;;;;;;;;;;15.80;73.00;;;14.93;100.00;83173.06;4238267;33;19990;-82
2022/09/19 03:54:28;;;;;;;;;;;15.80;72.90;;;14.92;100.00;83171.66;4261381;33;19910;-82
2022/09/19 03:56:57;;;;;;;;;;;15.80;73.00;;;14.92;100.00;83170.97;4309371;33;19902;-81
2022/09/19 03:59:26;;;;;;;;;;;15.80;72.90;;;14.91;100.00;83169.53;4237488;33;19998;-82
2022/09/19 04:01:56;;;;;;;;;;;15.80;72.80;;;14.91;100.00;83170.22;4261601;33;20121;-82
2022/09/19 04:04:25;;;;;;;;;;;15.80;72.80;;;-151.14;100.00;62537.16;4309210;33;19902;-81
2022/09/19 04:07:00;;;;;;;;;;;15.80;72.90;;;-151.14;100.00;62537.16;4285124;33;19925;-81
2022/09/19 04:09:29;;;;;;;;;;;15.80;72.90;;;14.90;100.00;83168.84;4237426;33;19910;-81
2022/09/19 04:12:03;;;;;;;;;;;15.80;72.90;;;14.90;100.00;83168.13;4237582;33;19909;-81
2022/09/19 04:14:34;;;;;;;;;;;15.70;72.90;;;14.88;100.00;62537.16;4237498;33;19902;-81
2022/09/19 04:17:03;;;;;;;;;;;15.70;72.90;;;14.88;100.00;83166.00;4309082;33;19902;-82
2022/09/19 04:19:31;;;;;;;;;;;15.70;72.80;;;14.88;100.00;83166.69;4237343;33;19902;-82
2022/09/19 04:22:21;;;;;;;;;;;15.70;72.90;;;-151.14;100.00;62537.16;4247340;33;20009;-82
2022/09/19 04:25:10;;;;;;;;;;;15.70;72.80;;;-151.14;100.00;62537.16;4261828;33;19910;-82
2022/09/19 04:28:03;;;;;;;;;;;15.70;72.90;;;14.86;100.00;83163.16;4260862;33;19925;-82
2022/09/19 04:30:32;;;;;;;;;;;15.70;73.00;;;14.87;100.00;83164.56;4284730;33;19909;-82
2022/09/19 04:33:03;;;;;;;;;;;15.70;73.00;;;14.87;100.00;62537.16;4237397;33;19902;-82
2022/09/19 04:35:35;;;;;;;;;;;15.70;72.90;;;14.86;100.00;62537.16;4237353;33;19969;-82
2022/09/19 04:38:07;;;;;;;;;;;15.70;72.90;;;14.87;100.00;62537.16;4237310;33;19989;-82
2022/09/19 04:40:39;;;;;;;;;;;15.70;73.00;;;14.85;100.00;83162.44;4237158;33;20009;-82
2022/09/19 04:43:09;;;;;;;;;;;15.70;72.80;;;14.86;100.00;83163.84;4284904;33;20205;-82
2022/09/19 04:45:44;;;;;;;;;;;15.70;72.90;;;14.86;100.00;83163.16;4260762;33;19902;-82
2022/09/19 04:48:23;;;;;;;;;;;15.70;72.90;;;14.86;100.00;83163.16;4237189;33;19909;-83
2022/09/19 04:50:53;;;;;;;;;;;15.70;72.80;;;14.85;100.00;62537.16;4236437;33;20225;-82
2022/09/19 04:53:29;;;;;;;;;;;15.70;73.00;;;14.83;100.00;83159.59;4284728;33;20005;-82
2022/09/19 04:56:00;;;;;;;;;;;15.70;72.90;;;14.83;100.00;83159.59;4260517;33;19976;-82
2022/09/19 04:58:28;;;;;;;;;;;15.70;73.00;;;-151.14;100.00;62537.16;4260441;33;20009;-82
2022/09/19 05:00:59;;;;;;;;;;;15.70;73.00;;;14.85;100.00;83161.72;4236974;33;19990;-82
2022/09/19 05:03:30;;;;;;;;;;;15.70;73.10;;;14.85;100.00;83161.72;4284598;33;20225;-82
2022/09/19 05:06:00;;;;;;;;;;;15.70;72.90;;;14.83;100.00;83159.59;4236935;33;19908;-82
2022/09/19 05:08:34;;;;;;;;;;;15.70;72.80;;;-151.14;100.00;62537.16;4261535;33;19902;-82
2022/09/19 05:11:29;;;;;;;;;;;15.70;72.90;;;-151.14;100.00;62537.16;4256413;33;19906;-82
2022/09/19 05:14:00;;;;;;;;;;;15.70;72.80;;;14.87;100.00;83164.56;4308673;33;19902;-82
2022/09/19 05:16:31;;;;;;;;;;;15.70;72.80;;;14.91;100.00;62537.16;4236956;33;19909;-82
2022/09/19 05:19:05;;;;;;;;;;;15.80;72.60;;;14.92;100.00;83170.97;4308734;33;19974;-82
2022/09/19 05:21:34;;;;;;;;;;;15.80;72.50;;;14.94;100.00;83174.50;4284353;33;19977;-82
2022/09/19 05:24:05;;;;;;;;;;;15.80;72.30;;;14.96;100.00;83176.66;4260472;33;19902;-82
2022/09/19 05:26:34;;;;;;;;;;;15.90;72.40;;;-151.14;100.00;62537.16;4260257;33;19902;-82
2022/09/19 05:29:12;;;;;;;;;;;15.90;72.20;;;14.99;100.00;83181.59;4236587;33;19909;-82
2022/09/19 05:32:02;;;;;;;;;;;15.90;72.00;;;15.00;100.00;83182.31;4308519;33;19902;-82
2022/09/19 05:34:42;;;;;;;;;;;15.90;71.80;;;15.00;100.00;83183.03;4261280;33;19962;-83
2022/09/19 05:37:30;;;;;;;;;;;15.90;71.90;;;-151.14;100.00;62537.16;4259966;33;19902;-83
2022/09/19 05:40:19;;;;;;;;;;;15.90;71.90;;;15.03;100.00;83186.56;4261015;33;19903;-82
2022/09/19 05:43:10;;;;;;;;;;;15.90;71.80;;;15.17;100.00;83206.44;4249256;33;19909;-82
2022/09/19 05:45:39;;;;;;;;;;;16.10;71.60;;;15.33;100.00;62537.16;4283937;33;19902;-82
2022/09/19 05:48:07;;;;;;;;;;;16.30;70.90;;;15.54;100.00;83256.88;4236476;33;19909;-82
2022/09/19 05:50:38;;;;;;;;;;;16.60;70.00;;;15.80;100.00;83292.38;4283867;33;20246;-82
2022/09/19 05:55:55;;;;;;;;;;;17.30;67.30;;;-151.14;100.00;62537.16;4236459;33;20210;-82
2022/09/19 05:58:35;;;;;;;;;;;17.60;65.60;;;-151.14;100.00;62537.16;4283677;33;20005;-82
2022/09/19 06:01:07;;;;;;;;;;;17.90;64.20;;;16.71;100.00;62537.16;4308050;33;19903;-82
2022/09/19 06:03:35;;;;;;;;;;;18.00;63.30;;;-151.14;100.00;62537.16;4236272;33;19902;-83
2022/09/19 06:06:11;;;;;;;;;;;18.10;63.00;;;-151.14;100.00;62537.16;4259904;33;19902;-82
2022/09/19 06:08:39;;;;;;;;;;;18.00;62.50;;;-151.14;100.00;62537.16;4259790;33;19910;-82
2022/09/19 06:11:10;;;;;;;;;;;17.80;62.70;;;-151.14;100.00;62537.16;4236234;33;19975;-82
2022/09/19 06:16:24;;;;;;;;;;;17.50;63.60;;;16.23;100.00;83352.06;4236094;33;20120;-82
2022/09/19 06:19:13;;;;;;;;;;;17.30;64.70;;;16.09;100.00;83332.16;4260603;33;20229;-82
2022/09/19 06:21:41;;;;;;;;;;;17.20;65.50;;;16.01;100.00;62537.16;4307711;33;19985;-82
2022/09/19 06:24:11;;;;;;;;;;;17.00;65.50;;;-151.14;100.00;62537.16;4236200;33;19902;-82
2022/09/19 06:26:41;;;;;;;;;;;16.90;66.10;;;-151.14;100.00;62537.16;4259659;33;20130;-82
2022/09/19 06:29:11;;;;;;;;;;;16.90;66.60;;;15.90;100.00;83306.59;4307707;33;19909;-82
2022/09/19 06:31:42;;;;;;;;;;;16.80;66.80;;;15.89;100.00;83305.19;4259491;33;20297;-82
2022/09/19 06:34:19;;;;;;;;;;;16.80;67.60;;;15.88;100.00;83303.75;4236107;33;20226;-82
2022/09/19 06:36:47;;;;;;;;;;;16.80;68.20;;;15.86;100.00;83300.22;4283329;33;20002;-82
2022/09/19 06:39:16;;;;;;;;;;;16.80;67.20;;;15.81;100.00;83293.78;4283319;33;20069;-82
2022/09/19 06:42:15;;;;;;;;;;;16.70;65.70;;;15.74;100.00;83283.84;4253890;33;20145;-82
2022/09/19 06:45:01;;;;;;;;;;;16.70;64.40;;;15.68;100.00;83275.31;4235895;33;20321;-82
2022/09/19 06:47:44;;;;;;;;;;;16.60;63.40;;;15.62;100.00;83268.22;4259337;33;19996;-83
2022/09/19 06:50:36;;;;;;;;;;;16.50;63.50;;;15.57;100.00;83261.09;4259230;33;20114;-82
2022/09/19 06:53:11;;;;;;;;;;;16.50;63.80;;;15.52;100.00;83253.28;4279879;33;20281;-83
2022/09/19 06:55:40;;;;;;;;;;;16.40;63.30;;;15.46;100.00;83245.50;4336331;32;20468;-82
2022/09/19 06:58:15;;;;;;;;;;;16.40;62.00;;;15.39;100.00;62537.16;4286821;33;19902;-82
2022/09/19 07:00:45;;;;;;;;;;;16.30;61.70;;;15.33;100.00;83228.44;4263482;33;19988;-83
2022/09/19 07:03:17;;;;;;;;;;;16.30;61.20;;;15.29;100.00;83222.06;4286325;33;19914;-83
2022/09/19 07:06:02;;;;;;;;;;;16.20;60.80;;;-151.14;100.00;62537.16;4266050;33;19901;-83
2022/09/19 07:08:45;;;;;;;;;;;16.20;61.60;;;15.28;100.00;83221.38;4288726;33;19987;-82
2022/09/19 07:11:13;;;;;;;;;;;16.20;63.40;;;-151.14;100.00;62537.16;4286986;33;20178;-83
2022/09/19 07:13:51;;;;;;;;;;;16.10;64.40;;;-151.14;100.00;62537.16;4286670;33;19909;-83
2022/09/19 07:16:21;;;;;;;;;;;16.10;64.10;;;15.21;100.00;83210.72;4281817;33;19902;-82
2022/09/19 07:18:49;;;;;;;;;;;16.10;63.00;;;15.18;100.00;83207.16;4234715;33;19989;-83
2022/09/19 07:21:36;;;;;;;;;;;16.10;62.30;;;15.14;100.00;83201.47;4282843;33;19977;-82
2022/09/19 07:24:09;;;;;;;;;;;16.00;63.30;;;15.12;100.00;62537.16;4263204;33;19909;-82
2022/09/19 07:26:56;;;;;;;;;;;16.10;63.60;;;15.09;100.00;83195.09;4258213;33;19978;-82
2022/09/19 07:29:27;;;;;;;;;;;16.00;63.50;;;-151.14;100.00;62537.16;4258125;33;19902;-82
2022/09/19 07:31:56;;;;;;;;;;;16.00;62.60;;;-151.14;100.00;62537.16;4258315;33;19903;-82
2022/09/19 07:34:26;;;;;;;;;;;16.00;62.60;;;-151.14;100.00;62537.16;4234696;33;19902;-83
2022/09/19 07:36:55;;;;;;;;;;;16.00;62.60;;;-151.14;100.00;62537.16;4234672;33;20239;-83
2022/09/19 07:39:24;;;;;;;;;;;15.90;63.60;;;-151.14;100.00;62537.16;4306317;33;20141;-82
2022/09/19 07:42:12;;;;;;;;;;;15.90;63.50;;;-151.14;100.00;62537.16;4258111;33;20252;-82
2022/09/19 07:45:04;;;;;;;;;;;15.90;63.30;;;-151.14;100.00;62537.16;4258177;33;20013;-82
2022/09/19 07:47:53;;;;;;;;;;;15.90;63.40;;;-151.14;100.00;62537.16;4258300;33;19902;-83
2022/09/19 07:50:36;;;;;;;;;;;15.90;63.80;;;-151.14;100.00;62537.16;4233923;33;20130;-83
2022/09/19 07:53:17;;;;;;;;;;;15.90;63.40;;;-151.14;100.00;62537.16;4234848;33;19910;-82
2022/09/19 07:55:51;;;;;;;;;;;16.00;64.10;;;15.14;100.00;62537.16;4331358;32;19921;-83
2022/09/19 07:58:21;;;;;;;;;;;16.00;64.10;;;15.18;100.00;62537.16;4286755;33;20480;-82
2022/09/19 08:00:59;;;;;;;;;;;16.00;63.30;;;15.22;100.00;62537.16;4262861;33;20339;-82
2022/09/19 08:03:48;;;;;;;;;;;16.10;64.00;;;15.27;100.00;83219.22;4287636;33;19902;-82
2022/09/19 08:06:20;;;;;;;;;;;16.10;64.10;;;15.29;100.00;62537.16;4286653;33;20005;-82
2022/09/19 08:08:49;;;;;;;;;;;16.10;64.40;;;15.31;100.00;83225.59;4286627;33;19908;-82
2022/09/19 08:11:50;;;;;;;;;;;16.20;64.40;;;15.33;100.00;83228.44;4286381;33;19954;-82
2022/09/19 08:14:18;;;;;;;;;;;16.20;64.40;;;15.34;100.00;83229.16;4286734;33;20288;-83
2022/09/19 08:16:48;;;;;;;;;;;16.20;64.50;;;15.36;100.00;83231.28;4286510;33;19902;-82
2022/09/19 08:19:18;;;;;;;;;;;16.20;64.10;;;-151.14;100.00;62537.16;4286694;33;20009;-82
2022/09/19 08:21:48;;;;;;;;;;;16.20;63.30;;;-151.14;100.00;62537.16;4310377;33;20137;-82
2022/09/19 08:24:17;;;;;;;;;;;16.20;62.70;;;15.32;100.00;83226.31;4287015;33;19902;-83
2022/09/19 08:26:47;;;;;;;;;;;16.20;62.50;;;15.30;100.00;83224.19;4337750;32;19901;-83
2022/09/19 08:29:15;;;;;;;;;;;16.20;62.50;;;15.30;100.00;83224.19;4265032;33;19909;-82
2022/09/19 08:31:56;;;;;;;;;;;16.20;62.50;;;15.30;100.00;83223.47;4264952;33;19910;-82
2022/09/19 08:34:27;;;;;;;;;;;16.20;62.60;;;15.29;100.00;83222.78;4337616;32;19901;-83
2022/09/19 08:36:58;;;;;;;;;;;16.20;62.70;;;15.31;100.00;83224.91;4337687;32;19942;-82
2022/09/19 08:39:28;;;;;;;;;;;16.20;62.80;;;15.31;100.00;83224.91;4288795;33;19909;-83
2022/09/19 08:42:06;;;;;;;;;;;16.20;62.70;;;15.30;100.00;83224.19;4288959;33;19950;-82
2022/09/19 08:44:47;;;;;;;;;;;16.20;62.20;;;15.29;100.00;83222.06;4288794;33;19909;-82
2022/09/19 08:47:19;;;;;;;;;;;16.20;62.10;;;15.28;100.00;62537.16;4264829;33;20020;-82
2022/09/19 08:49:52;;;;;;;;;;;16.20;61.80;;;15.25;100.00;83217.09;4264638;33;19917;-82
2022/09/19 08:52:33;;;;;;;;;;;16.10;61.90;;;-151.14;100.00;62537.16;4288447;33;19910;-82
2022/09/19 08:55:03;;;;;;;;;;;16.10;62.30;;;-151.14;100.00;62537.16;4264882;33;19928;-82
2022/09/19 08:57:39;;;;;;;;;;;16.10;62.20;;;15.21;100.00;83211.41;4264657;33;19910;-82
2022/09/19 09:00:17;;;;;;;;;;;16.10;62.40;;;15.21;100.00;62537.16;4264759;33;19902;-83
2022/09/19 09:02:55;;;;;;;;;;;16.10;62.40;;;15.21;100.00;83211.41;4288678;33;19909;-82
2022/09/19 09:05:33;;;;;;;;;;;16.10;62.70;;;-151.14;100.00;62537.16;4288474;33;19902;-82
2022/09/19 09:08:05;;;;;;;;;;;16.10;62.60;;;15.21;100.00;62537.16;4289380;33;19921;-82
2022/09/19 09:10:53;;;;;;;;;;;16.10;62.80;;;15.22;100.00;95930.50;4288572;33;20372;-82
2022/09/19 09:13:35;;;;;;;;;;;16.10;63.00;;;15.20;100.00;83210.00;4264495;33;19921;-82
2022/09/19 09:16:13;;;;;;;;;;;16.10;63.40;;;-151.14;100.00;62537.16;4288440;33;19997;-82
2022/09/19 09:18:58;;;;;;;;;;;16.10;63.60;;;15.18;100.00;83207.16;4288048;33;19985;-82
2022/09/19 09:21:34;;;;;;;;;;;16.10;63.60;;;15.17;100.00;83205.72;4264294;33;20236;-82
2022/09/19 09:24:06;;;;;;;;;;;16.10;63.90;;;15.15;100.00;62537.16;4288274;33;19901;-83
2022/09/19 09:27:10;;;;;;;;;;;16.00;64.00;;;15.15;100.00;83202.91;4275915;33;19902;-82
2022/09/19 09:29:42;;;;;;;;;;;16.00;64.00;;;-151.14;100.00;62537.16;4288208;33;20480;-82
2022/09/19 09:32:17;;;;;;;;;;;16.00;63.90;;;15.12;100.00;83198.63;4288176;33;19909;-82
2022/09/19 09:34:58;;;;;;;;;;;16.00;64.10;;;15.11;100.00;83197.22;4288211;33;19902;-83
2022/09/19 09:37:29;;;;;;;;;;;16.00;64.10;;;-151.14;100.00;62537.16;4288215;33;19985;-82
2022/09/19 09:40:12;;;;;;;;;;;16.00;64.30;;;-151.14;100.00;62537.16;4264386;33;19901;-83
2022/09/19 09:42:48;;;;;;;;;;;16.00;64.60;;;-151.14;100.00;62537.16;4264271;33;20243;-83
2022/09/19 09:45:27;;;;;;;;;;;16.00;64.30;;;-151.14;100.00;62537.16;4288123;33;20258;-83
2022/09/19 09:48:03;;;;;;;;;;;16.00;63.60;;;15.07;100.00;83191.53;4286737;33;19909;-82
2022/09/19 09:50:48;;;;;;;;;;;16.00;63.90;;;15.07;100.00;83191.53;4337041;32;20008;-82
2022/09/19 09:53:29;;;;;;;;;;;16.00;63.90;;;15.05;100.00;83189.41;4264042;33;20221;-83
2022/09/19 09:56:17;;;;;;;;;;;16.00;63.80;;;-151.14;100.00;62537.16;4264698;33;20263;-82
2022/09/19 09:58:59;;;;;;;;;;;15.90;64.10;;;15.04;100.00;83188.69;4288574;33;20122;-82
2022/09/19 10:04:30;;;;;;;;;;;15.90;64.10;;;-151.14;100.00;62537.16;4259912;33;19902;-82
2022/09/19 10:07:15;;;;;;;;;;;15.90;64.10;;;-151.14;100.00;62537.16;4308019;33;19978;-82
2022/09/19 10:09:49;;;;;;;;;;;15.90;64.00;;;-151.14;100.00;62537.16;4283350;33;19925;-82
2022/09/19 10:12:23;;;;;;;;;;;15.90;64.10;;;-151.14;100.00;62537.16;4259700;33;19956;-82
2022/09/19 10:14:54;;;;;;;;;;;15.90;63.10;;;15.03;100.00;89422.59;4307869;33;19902;-82
2022/09/19 10:17:42;;;;;;;;;;;15.90;63.30;;;-151.14;100.00;62537.16;4259479;33;20024;-83
2022/09/19 10:20:19;;;;;;;;;;;15.90;63.50;;;15.03;100.00;83187.28;4283707;33;19902;-83
2022/09/19 10:22:50;;;;;;;;;;;15.90;63.90;;;-151.14;100.00;62537.16;4283647;33;20122;-82
2022/09/19 10:25:23;;;;;;;;;;;15.90;63.60;;;-151.14;100.00;62537.16;4307938;33;19976;-82
2022/09/19 10:27:52;;;;;;;;;;;15.90;63.50;;;-151.14;100.00;62537.16;4260506;33;19902;-83
2022/09/19 10:30:41;;;;;;;;;;;15.90;63.70;;;-151.14;100.00;62537.16;4283397;33;20240;-82
2022/09/19 10:33:28;;;;;;;;;;;15.80;62.80;;;-151.14;100.00;62537.16;4259658;33;20214;-82
2022/09/19 10:36:07;;;;;;;;;;;15.80;62.60;;;-151.14;100.00;62537.16;4259475;33;19902;-82
2022/09/19 10:38:53;;;;;;;;;;;15.80;62.30;;;-151.14;100.00;62537.16;4259494;33;19902;-83
2022/09/19 10:41:25;;;;;;;;;;;15.80;62.70;;;-151.14;100.00;62537.16;4259410;33;19909;-83
2022/09/19 10:43:57;;;;;;;;;;;15.80;63.50;;;-151.14;100.00;62537.16;4259372;33;19902;-83
2022/09/19 10:46:31;;;;;;;;;;;15.80;63.60;;;-151.14;100.00;62537.16;4307318;33;19909;-83
2022/09/19 10:49:23;;;;;;;;;;;15.80;63.80;;;-151.14;100.00;62537.16;4259858;33;19902;-84
2022/09/19 10:51:52;;;;;;;;;;;15.80;64.20;;;-151.14;100.00;62537.16;4259351;33;19902;-84
2022/09/19 10:54:31;;;;;;;;;;;15.80;64.50;;;-151.14;100.00;62537.16;4259367;33;19973;-84
2022/09/19 10:57:01;;;;;;;;;;;15.80;64.20;;;-151.14;100.00;62537.16;4307144;33;19902;-84
2022/09/19 10:59:33;;;;;;;;;;;15.80;64.60;;;-151.14;100.00;62537.16;4259223;33;20202;-84
2022/09/19 11:02:28;;;;;;;;;;;15.80;64.10;;;-151.14;100.00;62537.16;4256170;33;19903;-84
2022/09/19 11:05:02;;;;;;;;;;;15.80;64.50;;;-151.14;100.00;62537.16;4283033;33;19972;-83
2022/09/19 11:07:48;;;;;;;;;;;15.80;64.70;;;-151.14;100.00;62537.16;4307184;33;19989;-84
2022/09/19 11:10:40;;;;;;;;;;;15.80;64.90;;;-151.14;100.00;62537.16;4282239;33;22900;-84
2022/09/19 11:13:20;;;;;;;;;;;15.90;65.00;;;-151.14;100.00;62537.16;4307264;33;19909;-83
2022/09/19 11:16:19;;;;;;;;;;;15.90;64.60;;;-151.14;100.00;62537.16;4283251;33;19902;-84
2022/09/19 11:19:11;;;;;;;;;;;15.90;64.70;;;-151.14;100.00;62537.16;4283013;33;19909;-84
2022/09/19 11:21:50;;;;;;;;;;;15.90;64.50;;;14.96;100.00;83177.34;4282913;33;20249;-84
2022/09/19 11:24:44;;;;;;;;;;;15.80;64.30;;;-151.14;100.00;62537.16;4259183;33;19932;-83
2022/09/19 11:27:32;;;;;;;;;;;15.90;64.20;;;-151.14;100.00;62537.16;4282396;33;20126;-83
2022/09/19 11:30:12;;;;;;;;;;;15.80;63.80;;;14.93;100.00;83173.06;4259124;33;20130;-84
2022/09/19 11:33:24;;;;;;;;;;;15.80;63.60;;;14.92;100.00;83171.66;4258911;33;19915;-84
2022/09/19 11:36:15;;;;;;;;;;;15.80;63.30;;;14.91;100.00;83170.22;4259002;33;19977;-84
2022/09/19 11:38:53;;;;;;;;;;;15.80;63.50;;;-151.14;100.00;62537.16;4258914;33;19986;-84
2022/09/19 11:41:29;;;;;;;;;;;15.80;63.80;;;-151.14;100.00;62537.16;4259131;33;19922;-83
2022/09/19 11:44:39;;;;;;;;;;;15.80;63.90;;;-151.14;100.00;62537.16;4307100;33;19903;-84
2022/09/19 11:47:39;;;;;;;;;;;15.80;64.10;;;-151.14;100.00;62537.16;4230435;33;20234;-84
2022/09/19 11:50:43;;;;;;;;;;;15.80;64.20;;;-151.14;100.00;62537.16;4207185;33;19902;-84
2022/09/19 11:53:38;;;;;;;;;;;15.80;64.30;;;-151.14;100.00;62537.16;4282791;33;19903;-84
2022/09/19 11:56:31;;;;;;;;;;;15.80;64.40;;;-151.14;100.00;62537.16;4258944;33;19909;-84
2022/09/19 11:59:06;;;;;;;;;;;15.80;64.00;;;-151.14;100.00;62537.16;4283589;33;19902;-83
2022/09/19 12:01:40;;;;;;;;;;;15.80;64.00;;;-151.14;100.00;62537.16;4262202;33;19909;-84
2022/09/19 12:04:23;;;;;;;;;;;15.80;63.90;;;18.08;100.00;62537.16;4260869;33;20129;-83